Moosonee Airport
CYMO : now visible

Airfield :











YOU CAN JOIN US ON...

 
LOGIN :

Register | Disclaimer

   EN    FR    IT 

 









Legend :    VFR   Marginal VFR   IFR   Intensive IFR   Very Intensive IFR
Visi :
Ceiling :
>= 8 km
>= 3000ft
5 to 8 km
1000 to 3000 ft
1500m to 5 km
500 to 1000 ft
800 to 1500m
200 to 500 ft
< 800m
< 200 ft
Symbols :   Thunderstorms  Fog  Heavy snow  Heavy precipitations  Wind > 20 kt






- Airport Elevation : 30 ft
- IATA code : YMO


CYMO - Moosonee

CURRENT METAR :
  • 250323Z AUTO 02004KT 9SM BKN008 02/01 A3000 RMK SLP161

EXPIRED METARs :
  • 250321Z AUTO 02004KT 9SM SCT008 02/01 A3000 RMK SLP161
  • 250300Z AUTO 01003KT 9SM CLR 02/01 A2999 RMK SLP159
  • 250200Z AUTO 01004KT 9SM CLR 04/02 A2999 RMK SLP157
  • 250100Z AUTO 01005KT 9SM CLR 06/02 A2998 RMK SLP156
  • 250000Z AUTO 34005KT 320V030 9SM CLR 09/03 A3000 RMK SLP160
  • 242300Z AUTO 01006KT 330V040 9SM CLR 10/04 A2999 RMK SLP157

TAF TAF CYMO
Valid from the 25 at 00:00 until the 25 at 12:00 UTC


242346Z 2500/2512 01006KT P6SM SCT020
TEMPO 2500/2503 BKN020
FM250300 VRB03KT P6SM FEW008
TEMPO 2503/2512 BKN008
PROB30 2503/2512 1 1/2SM BR OVC005 RMK FCST BASED ON AUTO OBS. NXT FCST BY 250600Z
CZYZ FIR / North America



MET'MAP, your aeronautical weather chart ! - Copyright ORBIFLY December 2007 - Disclaimer

ORBIFLY MET'MAP TEAM :

Programming & Development : Alexandra Zaïnal
Original concept : Baudouin d'Aumeries
Technical & hardware support : Manuel Goepfert
Assistance : Marc-Olivier Méhu




SOURCES & CREDITS :

   NOAA       Earth
Advisory